Time;durP1;ratioP1;P1;durP2;ratioP2;P2;SDS_P1;SDS_P2;PMS_P1;PMS_P2;Temp;Humidity;BMP_temperature;BMP_pressure;BME280_temperature;BME280_humidity;BME280_pressure;Samples;Min_cycle;Max_cycle;Signal;HPM_P1;HPM_P2
2022/01/09 00:02:08;;;;;;;0.33;0.33;;;16.30;66.50;;;;;;5067697;28;43725;-70
2022/01/09 00:04:36;;;;;;;0.40;0.40;;;16.30;66.70;;;;;;5068382;28;43999;-70
2022/01/09 00:07:05;;;;;;;0.40;0.40;;;16.20;66.80;;;;;;5068380;28;44097;-70
2022/01/09 00:09:33;;;;;;;0.40;0.40;;;16.20;66.90;;;;;;5068511;28;43971;-70
2022/01/09 00:12:01;;;;;;;0.47;0.47;;;16.20;67.00;;;;;;5067963;28;43948;-70
2022/01/09 00:14:30;;;;;;;0.50;0.50;;;16.10;67.00;;;;;;5068142;28;43966;-70
2022/01/09 00:16:59;;;;;;;0.40;0.40;;;16.10;67.10;;;;;;5068014;28;43445;-70
2022/01/09 00:19:29;;;;;;;0.40;0.40;;;16.10;67.30;;;;;;5068282;28;43899;-70
2022/01/09 00:21:58;;;;;;;0.40;0.40;;;16.20;67.30;;;;;;5067969;28;43994;-70
2022/01/09 00:24:26;;;;;;;0.40;0.40;;;16.20;66.90;;;;;;5061590;28;43416;-71
2022/01/09 00:26:54;;;;;;;0.20;0.20;;;16.30;66.80;;;;;;5066390;28;43998;-70
2022/01/09 00:29:22;;;;;;;0.30;0.30;;;16.30;66.80;;;;;;5066832;28;43925;-70
2022/01/09 00:31:52;;;;;;;0.30;0.30;;;16.20;66.70;;;;;;5067392;28;43971;-71
2022/01/09 00:34:20;;;;;;;0.20;0.20;;;16.20;66.90;;;;;;5067627;28;44032;-69
2022/01/09 00:36:48;;;;;;;0.40;0.40;;;16.20;67.00;;;;;;5066300;28;43946;-70
2022/01/09 00:39:18;;;;;;;0.30;0.30;;;16.20;67.10;;;;;;5067945;28;44056;-70
2022/01/09 00:41:46;;;;;;;0.40;0.40;;;16.10;67.10;;;;;;5067323;28;44085;-70
2022/01/09 00:44:14;;;;;;;0.50;0.50;;;16.10;67.20;;;;;;5067179;28;44137;-69
2022/01/09 00:46:42;;;;;;;0.20;0.20;;;16.10;67.20;;;;;;5067623;28;44009;-69
2022/01/09 00:49:13;;;;;;;0.40;0.40;;;16.10;67.30;;;;;;5067953;28;44043;-69
2022/01/09 00:51:41;;;;;;;0.40;0.40;;;16.10;67.40;;;;;;5067558;28;45039;-70
2022/01/09 00:54:10;;;;;;;0.60;0.60;;;16.10;67.40;;;;;;5067437;28;44003;-70
2022/01/09 00:56:38;;;;;;;0.20;0.20;;;16.00;67.40;;;;;;5066148;28;43987;-70
2022/01/09 00:59:07;;;;;;;0.30;0.30;;;16.10;67.60;;;;;;5067845;28;43757;-70
2022/01/09 01:01:35;;;;;;;0.40;0.40;;;16.10;67.60;;;;;;5065349;28;45584;-69
2022/01/09 01:04:03;;;;;;;0.30;0.30;;;16.10;67.40;;;;;;5066901;28;43913;-70
2022/01/09 01:06:33;;;;;;;0.40;0.40;;;16.30;67.10;;;;;;5067302;28;43904;-69
2022/01/09 01:09:00;;;;;;;0.30;0.30;;;16.40;66.80;;;;;;5067745;28;44038;-70
2022/01/09 01:11:28;;;;;;;0.40;0.40;;;16.50;66.20;;;;;;5066746;28;44049;-70
2022/01/09 01:13:57;;;;;;;0.40;0.40;;;16.50;65.90;;;;;;5067250;28;44114;-69
2022/01/09 01:16:25;;;;;;;0.43;0.43;;;16.50;65.90;;;;;;5065710;28;44045;-69
2022/01/09 01:18:57;;;;;;;0.30;0.30;;;16.50;66.20;;;;;;5067639;28;43943;-69
2022/01/09 01:21:25;;;;;;;0.50;0.50;;;16.40;66.30;;;;;;5066847;28;43913;-70
2022/01/09 01:23:54;;;;;;;0.30;0.30;;;16.30;66.40;;;;;;5066919;28;43966;-70
2022/01/09 01:26:22;;;;;;;0.37;0.37;;;16.30;66.70;;;;;;5065879;28;43958;-70
2022/01/09 01:28:50;;;;;;;0.30;0.30;;;16.30;66.90;;;;;;5067254;28;44194;-70
2022/01/09 01:31:19;;;;;;;0.40;0.40;;;16.20;66.90;;;;;;5066435;28;43999;-70
2022/01/09 01:33:47;;;;;;;0.30;0.30;;;16.20;67.10;;;;;;5066719;28;43823;-71
2022/01/09 01:36:15;;;;;;;0.23;0.23;;;16.20;67.20;;;;;;5066845;28;43974;-70
2022/01/09 01:38:44;;;;;;;0.30;0.30;;;16.10;67.20;;;;;;5067126;28;44235;-70
2022/01/09 01:41:13;;;;;;;0.47;0.47;;;16.10;67.30;;;;;;5066533;28;43988;-71
2022/01/09 01:43:41;;;;;;;0.30;0.30;;;16.10;67.40;;;;;;5066386;28;44102;-70
2022/01/09 01:46:09;;;;;;;0.37;0.37;;;16.20;67.20;;;;;;5066955;28;43913;-71
2022/01/09 01:48:37;;;;;;;0.33;0.33;;;16.30;67.00;;;;;;5065828;28;43533;-70
2022/01/09 01:51:05;;;;;;;0.27;0.27;;;16.30;66.80;;;;;;5066522;28;44026;-70
2022/01/09 01:53:34;;;;;;;0.40;0.40;;;16.30;66.90;;;;;;5066481;28;43971;-70
2022/01/09 01:56:02;;;;;;;0.30;0.30;;;16.20;66.90;;;;;;5066706;28;43999;-69
2022/01/09 01:58:34;;;;;;;0.30;0.30;;;16.20;67.00;;;;;;5066953;28;44174;-70
2022/01/09 02:01:03;;;;;;;0.20;0.20;;;16.20;67.10;;;;;;5066462;28;43580;-69
2022/01/09 02:03:31;;;;;;;0.30;0.30;;;16.10;67.10;;;;;;5066061;28;44117;-70
2022/01/09 02:05:59;;;;;;;0.40;0.40;;;16.10;67.20;;;;;;5066467;28;43888;-70
2022/01/09 02:08:27;;;;;;;0.30;0.30;;;16.10;67.40;;;;;;5066960;28;43589;-70
2022/01/09 02:10:55;;;;;;;0.30;0.30;;;16.10;67.40;;;;;;5066137;28;43754;-70
2022/01/09 02:13:24;;;;;;;0.30;0.30;;;16.10;67.50;;;;;;5065100;28;45803;-70
2022/01/09 02:15:57;;;;;;;0.30;0.30;;;16.00;67.40;;;;;;5068957;28;44008;-69
2022/01/09 02:18:25;;;;;;;0.20;0.20;;;16.10;67.50;;;;;;5070238;28;43936;-70
2022/01/09 02:20:54;;;;;;;0.30;0.30;;;16.10;67.60;;;;;;5068471;28;46046;-70
2022/01/09 02:23:22;;;;;;;0.30;0.30;;;16.10;67.70;;;;;;5069701;28;44011;-70
2022/01/09 02:25:51;;;;;;;0.40;0.40;;;16.10;67.60;;;;;;5068362;28;44006;-70
2022/01/09 02:28:19;;;;;;;0.30;0.30;;;16.20;67.30;;;;;;5070397;28;43982;-70
2022/01/09 02:30:49;;;;;;;0.27;0.27;;;16.30;67.00;;;;;;5069309;28;45133;-70
2022/01/09 02:33:19;;;;;;;0.20;0.20;;;16.40;66.50;;;;;;5068496;28;45172;-70
2022/01/09 02:35:50;;;;;;;0.20;0.20;;;16.50;66.20;;;;;;5069684;28;43374;-70
2022/01/09 02:38:20;;;;;;;0.30;0.30;;;16.50;66.20;;;;;;5070219;28;43454;-71
2022/01/09 02:40:50;;;;;;;0.47;0.47;;;16.40;66.30;;;;;;5062700;28;43992;-70
2022/01/09 02:43:19;;;;;;;0.30;0.30;;;16.40;66.50;;;;;;5069725;28;44267;-71
2022/01/09 02:45:52;;;;;;;0.63;0.23;;;16.30;66.50;;;;;;5068011;28;44062;-70
2022/01/09 02:48:20;;;;;;;0.20;0.20;;;16.30;66.80;;;;;;5069996;28;43947;-70
2022/01/09 02:51:00;;;;;;;0.30;0.30;;;16.20;66.90;;;;;;5067765;28;46037;-70
2022/01/09 02:53:33;;;;;;;0.20;0.20;;;16.20;67.10;;;;;;5069660;28;43891;-70
2022/01/09 02:56:02;;;;;;;0.30;0.30;;;16.20;67.10;;;;;;5069642;28;44016;-70
2022/01/09 02:58:30;;;;;;;0.30;0.30;;;16.10;67.90;;;;;;5069697;28;44071;-70
2022/01/09 03:00:58;;;;;;;0.23;0.23;;;16.10;67.20;;;;;;5067445;28;45412;-70
2022/01/09 03:03:26;;;;;;;0.20;0.20;;;16.10;67.30;;;;;;5068990;28;44074;-69
2022/01/09 03:05:54;;;;;;;0.20;0.20;;;16.10;67.50;;;;;;5069807;28;43970;-70
2022/01/09 03:08:23;;;;;;;0.30;0.30;;;16.20;67.40;;;;;;5069507;28;43956;-70
2022/01/09 03:10:52;;;;;;;0.30;0.30;;;16.20;67.00;;;;;;5068823;28;45261;-70
2022/01/09 03:13:20;;;;;;;0.30;0.30;;;16.30;66.90;;;;;;5068807;28;43964;-70
2022/01/09 03:15:48;;;;;;;0.30;0.30;;;16.30;67.00;;;;;;5068881;28;43997;-70
2022/01/09 03:18:16;;;;;;;0.30;0.30;;;16.20;66.90;;;;;;5069335;28;43816;-71
2022/01/09 03:20:44;;;;;;;0.30;0.30;;;16.20;67.10;;;;;;5068655;28;43960;-71
2022/01/09 03:23:12;;;;;;;0.40;0.40;;;16.20;67.20;;;;;;5068717;28;44006;-70
2022/01/09 03:25:40;;;;;;;0.30;0.30;;;16.10;67.20;;;;;;5068431;28;44014;-70
2022/01/09 03:28:09;;;;;;;0.37;0.37;;;16.10;67.20;;;;;;5069553;28;44254;-70
2022/01/09 03:30:37;;;;;;;0.40;0.40;;;16.10;67.40;;;;;;5067423;28;46061;-70
2022/01/09 03:33:05;;;;;;;0.20;0.20;;;16.10;67.40;;;;;;5068825;28;43970;-70
2022/01/09 03:35:33;;;;;;;0.20;0.20;;;16.10;67.40;;;;;;5068862;28;43962;-70
2022/01/09 03:38:01;;;;;;;0.30;0.30;;;16.10;67.60;;;;;;5069199;28;43960;-70
2022/01/09 03:40:29;;;;;;;0.20;0.20;;;16.10;67.50;;;;;;5068524;28;43942;-70
2022/01/09 03:42:57;;;;;;;0.20;0.20;;;16.10;67.60;;;;;;5068346;28;43978;-70
2022/01/09 03:45:27;;;;;;;0.10;0.10;;;16.10;67.60;;;;;;5068573;28;43371;-70
2022/01/09 03:47:55;;;;;;;0.30;0.30;;;16.10;67.50;;;;;;5068749;28;43838;-71
2022/01/09 03:50:23;;;;;;;0.30;0.30;;;16.10;67.50;;;;;;5068361;28;43818;-70
2022/01/09 03:52:52;;;;;;;0.23;0.23;;;16.10;67.40;;;;;;5068191;28;44015;-70
2022/01/09 03:55:21;;;;;;;0.30;0.30;;;16.10;67.30;;;;;;5068556;28;43827;-70
2022/01/09 03:57:49;;;;;;;0.30;0.30;;;16.10;67.20;;;;;;5068730;28;44031;-70
2022/01/09 04:00:19;;;;;;;0.40;0.40;;;16.00;66.80;;;;;;5066930;28;45733;-70
2022/01/09 04:02:49;;;;;;;0.20;0.20;;;16.10;66.80;;;;;;5067801;28;43854;-69
2022/01/09 04:05:17;;;;;;;0.73;0.30;;;16.20;66.60;;;;;;5068224;28;43952;-70
2022/01/09 04:07:46;;;;;;;0.27;0.27;;;16.40;66.00;;;;;;5068764;28;43959;-70
2022/01/09 04:10:28;;;;;;;0.20;0.20;;;16.50;65.30;;;;;;5068230;28;44117;-71
2022/01/09 04:12:59;;;;;;;0.47;0.47;;;16.70;65.40;;;;;;5068235;28;43814;-71
2022/01/09 04:15:28;;;;;;;0.40;0.40;;;17.00;64.10;;;;;;5068261;28;43878;-70
2022/01/09 04:17:58;;;;;;;0.40;0.40;;;17.10;63.40;;;;;;5068406;28;43602;-69
2022/01/09 04:20:29;;;;;;;0.20;0.20;;;17.30;62.90;;;;;;5066657;28;46195;-70
2022/01/09 04:22:57;;;;;;;0.40;0.40;;;17.40;62.60;;;;;;5068020;28;44059;-70
2022/01/09 04:25:25;;;;;;;0.30;0.30;;;17.50;62.30;;;;;;5067908;28;44145;-69
2022/01/09 04:27:54;;;;;;;0.70;0.70;;;17.50;62.10;;;;;;5067340;28;44003;-71
2022/01/09 04:30:22;;;;;;;1.00;1.00;;;17.40;62.00;;;;;;5067690;28;43751;-70
2022/01/09 04:32:50;;;;;;;1.97;1.33;;;17.40;62.20;;;;;;5067479;28;43754;-69
2022/01/09 04:35:20;;;;;;;2.33;1.60;;;17.20;62.70;;;;;;5067768;28;43993;-70
2022/01/09 04:37:50;;;;;;;1.53;1.10;;;17.00;63.20;;;;;;5067237;28;44047;-70
2022/01/09 04:40:19;;;;;;;1.37;1.20;;;16.80;63.70;;;;;;5067346;28;43955;-70
2022/01/09 04:42:51;;;;;;;1.87;1.57;;;16.70;64.20;;;;;;5067348;28;44005;-69
2022/01/09 04:45:20;;;;;;;2.10;1.70;;;16.60;64.60;;;;;;5067545;28;43997;-70
2022/01/09 04:47:50;;;;;;;2.53;2.03;;;16.50;64.80;;;;;;5068115;28;43877;-70
2022/01/09 04:50:24;;;;;;;8.60;3.57;;;16.40;65.00;;;;;;5067314;28;44082;-69
2022/01/09 04:52:58;;;;;;;8.57;3.53;;;16.40;65.30;;;;;;5067410;28;43960;-69
2022/01/09 04:55:26;;;;;;;8.97;3.90;;;16.40;65.40;;;;;;5067594;28;43992;-69
2022/01/09 04:57:55;;;;;;;9.67;3.97;;;16.40;65.10;;;;;;5067699;28;43592;-70
2022/01/09 05:00:23;;;;;;;10.73;4.30;;;16.50;64.70;;;;;;5065838;28;46433;-71
2022/01/09 05:02:51;;;;;;;10.10;4.50;;;16.50;64.60;;;;;;5065298;28;45435;-69
2022/01/09 05:05:20;;;;;;;10.33;4.33;;;16.50;64.90;;;;;;5067317;28;43967;-69
2022/01/09 05:07:50;;;;;;;8.77;4.33;;;16.40;65.10;;;;;;5060969;28;43884;-70
2022/01/09 05:10:18;;;;;;;14.67;4.60;;;16.40;65.30;;;;;;5060578;28;44024;-71
2022/01/09 05:12:46;;;;;;;12.70;5.20;;;16.30;65.40;;;;;;5060721;28;43905;-70
2022/01/09 05:15:16;;;;;;;11.77;5.00;;;16.30;65.70;;;;;;5060721;28;43962;-70
2022/01/09 05:17:44;;;;;;;7.33;4.27;;;16.20;65.70;;;;;;5059867;28;44128;-70
2022/01/09 05:20:14;;;;;;;10.20;4.53;;;16.20;65.90;;;;;;5066865;28;45074;-69
2022/01/09 05:22:44;;;;;;;9.33;4.70;;;16.20;66.00;;;;;;5066912;28;43473;-70
2022/01/09 05:25:12;;;;;;;11.57;5.17;;;16.10;66.10;;;;;;5066929;28;43967;-69
2022/01/09 05:27:40;;;;;;;12.60;5.17;;;16.10;66.10;;;;;;5067140;28;43916;-69
2022/01/09 05:30:10;;;;;;;13.87;5.30;;;16.10;66.10;;;;;;5066895;28;43977;-70
2022/01/09 05:32:39;;;;;;;11.33;5.37;;;16.10;66.00;;;;;;5066887;28;44115;-69
2022/01/09 05:35:08;;;;;;;14.47;5.43;;;16.20;66.00;;;;;;5067312;28;44103;-68
2022/01/09 05:37:36;;;;;;;16.27;6.00;;;16.30;65.60;;;;;;5067386;28;43826;-70
2022/01/09 05:40:07;;;;;;;9.83;5.07;;;16.50;65.20;;;;;;5066936;28;43914;-70
2022/01/09 05:42:35;;;;;;;15.80;5.83;;;16.60;64.90;;;;;;5067027;28;44014;-71
2022/01/09 05:45:04;;;;;;;13.83;5.80;;;16.70;64.30;;;;;;5066444;28;43984;-70
2022/01/09 05:47:33;;;;;;;15.20;6.20;;;16.70;64.10;;;;;;5066974;28;43440;-70
2022/01/09 05:50:01;;;;;;;14.07;5.93;;;16.60;64.40;;;;;;5066183;28;43908;-70
2022/01/09 05:52:29;;;;;;;11.07;5.07;;;16.60;64.70;;;;;;5066565;28;43843;-70
2022/01/09 05:54:57;;;;;;;10.03;5.40;;;16.50;64.90;;;;;;5066538;28;43976;-69
2022/01/09 05:57:26;;;;;;;12.80;5.47;;;16.40;65.10;;;;;;5066721;28;43978;-71
2022/01/09 05:59:54;;;;;;;12.87;5.27;;;16.30;65.40;;;;;;5065438;28;46142;-70
2022/01/09 06:02:22;;;;;;;10.80;4.77;;;16.30;65.50;;;;;;5065903;28;44003;-69
2022/01/09 06:04:50;;;;;;;9.23;4.90;;;16.20;66.30;;;;;;5066551;28;43918;-70
2022/01/09 06:07:19;;;;;;;11.87;5.40;;;16.20;65.70;;;;;;5066695;28;43953;-70
2022/01/09 06:09:47;;;;;;;9.87;5.00;;;16.20;66.00;;;;;;5066188;28;43954;-69
2022/01/09 06:12:15;;;;;;;11.03;5.30;;;16.10;65.80;;;;;;5066402;28;44003;-71
2022/01/09 06:14:44;;;;;;;11.83;5.53;;;16.20;65.90;;;;;;5066316;28;43833;-70
2022/01/09 06:17:13;;;;;;;10.87;5.53;;;16.30;65.60;;;;;;5066402;28;44067;-70
2022/01/09 06:19:41;;;;;;;13.67;5.97;;;16.30;65.30;;;;;;5066065;28;44689;-70
2022/01/09 06:22:09;;;;;;;10.20;4.93;;;16.30;65.20;;;;;;5066217;28;43438;-70
2022/01/09 06:24:37;;;;;;;11.13;5.50;;;16.30;65.40;;;;;;5066357;28;44001;-70
2022/01/09 06:27:05;;;;;;;7.97;4.97;;;16.30;65.60;;;;;;5066647;28;44050;-70
2022/01/09 06:29:34;;;;;;;8.07;4.63;;;16.20;65.60;;;;;;5065952;28;43960;-70
2022/01/09 06:32:04;;;;;;;9.60;5.30;;;16.20;65.90;;;;;;5065831;28;43920;-69
2022/01/09 06:34:32;;;;;;;11.70;5.23;;;16.10;66.00;;;;;;5066271;28;44026;-68
2022/01/09 06:37:00;;;;;;;10.93;5.30;;;16.10;66.10;;;;;;5066353;28;43951;-70
2022/01/09 06:39:27;;;;;;;10.90;5.50;;;16.10;66.20;;;;;;5065930;28;45125;-70
2022/01/09 06:41:55;;;;;;;14.43;5.37;;;16.00;66.10;;;;;;5065506;28;43966;-70
2022/01/09 06:44:24;;;;;;;9.00;4.93;;;16.00;66.20;;;;;;5065735;28;43926;-71
2022/01/09 06:46:51;;;;;;;8.93;4.90;;;16.00;66.20;;;;;;5066270;28;44018;-70
2022/01/09 06:49:21;;;;;;;11.03;4.50;;;16.00;66.30;;;;;;5066230;28;44012;-70
2022/01/09 06:51:49;;;;;;;9.90;4.93;;;16.00;66.20;;;;;;5065434;28;43451;-70
2022/01/09 06:54:17;;;;;;;11.90;5.43;;;16.00;66.00;;;;;;5065708;28;44038;-70
2022/01/09 06:56:44;;;;;;;9.70;4.87;;;16.10;65.70;;;;;;5066214;28;43936;-70
2022/01/09 06:59:12;;;;;;;8.37;4.67;;;16.30;65.40;;;;;;5065604;28;43940;-70
2022/01/09 07:01:40;;;;;;;9.73;5.13;;;16.50;64.90;;;;;;5065813;28;45193;-70
2022/01/09 07:04:08;;;;;;;10.20;5.60;;;16.60;64.40;;;;;;5069659;28;43813;-69
2022/01/09 07:06:37;;;;;;;6.90;4.60;;;16.60;64.00;;;;;;5069740;28;43885;-69
2022/01/09 07:09:06;;;;;;;7.30;4.43;;;16.60;64.20;;;;;;5067773;28;44223;-70
2022/01/09 07:11:33;;;;;;;8.93;5.00;;;16.60;64.60;;;;;;5068967;28;44143;-70
2022/01/09 07:14:01;;;;;;;5.90;4.13;;;16.50;64.70;;;;;;5069108;28;44133;-70
2022/01/09 07:16:29;;;;;;;9.20;4.70;;;16.40;64.90;;;;;;5069396;28;43957;-70
2022/01/09 07:18:57;;;;;;;8.23;4.50;;;16.30;65.10;;;;;;5068687;28;44948;-71
2022/01/09 07:21:25;;;;;;;9.00;5.00;;;16.30;65.40;;;;;;5068801;28;44097;-70
2022/01/09 07:23:55;;;;;;;7.60;4.80;;;16.30;65.50;;;;;;5068879;28;43932;-70
2022/01/09 07:26:22;;;;;;;7.50;4.60;;;16.20;65.60;;;;;;5069078;28;43879;-71
2022/01/09 07:28:51;;;;;;;6.67;4.13;;;16.20;65.80;;;;;;5068229;28;43974;-70
2022/01/09 07:31:19;;;;;;;8.87;4.87;;;16.10;65.80;;;;;;5068373;28;43876;-71
2022/01/09 07:33:47;;;;;;;7.60;4.67;;;16.10;65.80;;;;;;5068510;28;43920;-70
2022/01/09 07:36:17;;;;;;;9.70;4.70;;;16.10;65.70;;;;;;5068674;28;43971;-70
2022/01/09 07:38:45;;;;;;;5.60;4.17;;;16.20;65.30;;;;;;5068177;28;43963;-70
2022/01/09 07:41:15;;;;;;;6.50;4.30;;;16.30;65.20;;;;;;5068209;28;43970;-69
2022/01/09 07:43:42;;;;;;;6.30;3.80;;;16.30;65.30;;;;;;5067850;28;44074;-70
2022/01/09 07:46:11;;;;;;;5.87;3.97;;;16.20;65.40;;;;;;5068760;28;43594;-71
2022/01/09 07:48:38;;;;;;;6.07;4.37;;;16.20;65.50;;;;;;5068272;28;45081;-69
2022/01/09 07:51:06;;;;;;;7.43;3.97;;;16.20;65.70;;;;;;5068417;28;43376;-70
2022/01/09 07:53:34;;;;;;;4.90;3.80;;;16.10;65.70;;;;;;5068455;28;43985;-69
2022/01/09 07:56:02;;;;;;;7.00;3.97;;;16.10;65.80;;;;;;5068369;28;43561;-69
2022/01/09 07:58:32;;;;;;;5.50;4.10;;;16.10;65.80;;;;;;5066279;28;45748;-70
2022/01/09 08:01:00;;;;;;;5.00;3.77;;;16.10;66.00;;;;;;5067751;28;43896;-70
2022/01/09 08:03:28;;;;;;;6.03;3.93;;;16.00;66.00;;;;;;5067597;28;43985;-70
2022/01/09 08:05:56;;;;;;;5.70;3.97;;;16.00;66.00;;;;;;5068241;28;44483;-71
2022/01/09 08:08:24;;;;;;;5.87;4.37;;;16.00;66.00;;;;;;5067551;28;43906;-71
2022/01/09 08:10:52;;;;;;;6.93;4.00;;;16.00;66.10;;;;;;5067886;28;44001;-69
2022/01/09 08:13:20;;;;;;;4.00;3.60;;;16.00;65.90;;;;;;5067703;28;43959;-70
2022/01/09 08:15:49;;;;;;;5.80;3.83;;;16.10;65.90;;;;;;5068116;28;43811;-70
2022/01/09 08:18:23;;;;;;;5.57;3.73;;;16.20;65.60;;;;;;5067743;28;44000;-69
2022/01/09 08:20:51;;;;;;;4.50;3.57;;;16.30;65.10;;;;;;5061399;28;43397;-70
2022/01/09 08:23:19;;;;;;;6.57;3.73;;;16.50;64.70;;;;;;5067548;28;43978;-71
2022/01/09 08:25:47;;;;;;;6.83;3.77;;;16.60;64.30;;;;;;5068093;28;44457;-70
2022/01/09 08:28:15;;;;;;;6.30;3.50;;;16.60;64.00;;;;;;5067270;28;44003;-69
2022/01/09 08:30:43;;;;;;;4.43;3.57;;;16.60;64.30;;;;;;5067341;28;43772;-70
2022/01/09 08:33:12;;;;;;;4.10;3.37;;;16.50;64.60;;;;;;5066160;28;44125;-69
2022/01/09 08:35:40;;;;;;;6.13;3.77;;;16.40;64.60;;;;;;5067838;28;43826;-70
2022/01/09 08:38:09;;;;;;;4.33;3.50;;;16.30;64.90;;;;;;5067489;28;44014;-70
2022/01/09 08:40:37;;;;;;;3.47;3.03;;;16.30;65.10;;;;;;5067442;28;43878;-70
2022/01/09 08:43:04;;;;;;;4.80;3.67;;;16.20;65.30;;;;;;5067776;28;43863;-70
2022/01/09 08:45:33;;;;;;;5.40;3.73;;;16.20;65.50;;;;;;5067594;28;44019;-70
2022/01/09 08:48:01;;;;;;;4.73;3.30;;;16.20;65.60;;;;;;5067074;28;43929;-70
2022/01/09 08:50:31;;;;;;;4.37;3.10;;;16.10;65.60;;;;;;5066126;28;45402;-71
2022/01/09 08:52:59;;;;;;;3.90;3.50;;;16.10;65.70;;;;;;5067430;28;43963;-70
2022/01/09 08:55:28;;;;;;;4.77;3.80;;;16.10;65.60;;;;;;5067369;28;44006;-70
2022/01/09 08:57:57;;;;;;;4.90;3.23;;;16.10;65.50;;;;;;5065406;28;46230;-69
2022/01/09 09:00:25;;;;;;;3.63;3.30;;;16.30;65.30;;;;;;5066959;28;44087;-70
2022/01/09 09:02:54;;;;;;;4.83;3.13;;;16.30;65.00;;;;;;5066614;28;44035;-69
2022/01/09 09:05:22;;;;;;;3.63;3.27;;;16.30;65.20;;;;;;5067459;28;43540;-69
2022/01/09 09:07:52;;;;;;;3.63;3.10;;;16.30;65.30;;;;;;5066614;28;44063;-70
2022/01/09 09:10:21;;;;;;;3.90;2.83;;;16.20;65.30;;;;;;5066787;28;45065;-70
2022/01/09 09:12:49;;;;;;;3.23;2.90;;;16.20;65.50;;;;;;5065701;28;43904;-69
2022/01/09 09:15:20;;;;;;;3.30;3.00;;;16.10;65.50;;;;;;5067238;28;44058;-71
2022/01/09 09:17:52;;;;;;;3.67;3.27;;;16.10;65.70;;;;;;5065142;28;46231;-70
2022/01/09 09:20:20;;;;;;;2.90;2.70;;;16.10;65.90;;;;;;5066725;28;44024;-70
2022/01/09 09:22:49;;;;;;;3.43;2.80;;;16.10;65.90;;;;;;5066362;28;43894;-69
2022/01/09 09:25:18;;;;;;;2.87;2.67;;;16.10;66.00;;;;;;5066946;28;43523;-71
2022/01/09 09:27:46;;;;;;;2.80;2.60;;;16.00;66.00;;;;;;5066320;28;43978;-69
2022/01/09 09:30:15;;;;;;;2.47;2.33;;;16.00;66.00;;;;;;5066504;28;43915;-69
2022/01/09 09:32:44;;;;;;;3.00;2.67;;;16.00;66.10;;;;;;5066624;28;43955;-70
2022/01/09 09:35:12;;;;;;;3.73;3.03;;;16.00;65.90;;;;;;5066826;28;44128;-70
2022/01/09 09:37:40;;;;;;;2.60;2.40;;;16.10;65.80;;;;;;5065002;28;45990;-70
2022/01/09 09:40:09;;;;;;;5.90;2.87;;;16.10;65.50;;;;;;5064934;28;45216;-70
2022/01/09 09:42:39;;;;;;;3.60;2.67;;;16.30;65.20;;;;;;5066544;28;43442;-70
2022/01/09 09:45:08;;;;;;;2.90;2.70;;;16.40;64.60;;;;;;5066732;28;44003;-71
2022/01/09 09:47:36;;;;;;;3.87;3.00;;;16.50;64.30;;;;;;5066371;28;43972;-70
2022/01/09 09:50:05;;;;;;;2.70;2.50;;;16.50;64.50;;;;;;5066202;28;44002;-71
2022/01/09 09:52:33;;;;;;;3.07;2.87;;;16.50;64.70;;;;;;5066647;28;43980;-70
2022/01/09 09:55:04;;;;;;;2.97;2.77;;;16.40;64.80;;;;;;5066977;28;43503;-69
2022/01/09 09:57:32;;;;;;;3.10;2.80;;;16.30;65.00;;;;;;5066010;28;44034;-69
2022/01/09 10:00:04;;;;;;;4.03;3.30;;;16.30;65.20;;;;;;5064587;28;45096;-70
2022/01/09 10:02:43;;;;;;;2.90;2.70;;;16.20;65.30;;;;;;5064128;28;44096;-71
2022/01/09 10:05:11;;;;;;;2.67;2.50;;;16.20;65.40;;;;;;5060521;28;44008;-70
2022/01/09 10:07:39;;;;;;;2.70;2.50;;;16.10;65.40;;;;;;5066047;28;43934;-69
2022/01/09 10:10:09;;;;;;;2.53;2.33;;;16.10;65.50;;;;;;5066177;28;43999;-70
2022/01/09 10:12:37;;;;;;;2.67;2.50;;;16.10;65.50;;;;;;5066069;28;43743;-70
2022/01/09 10:15:09;;;;;;;2.80;2.53;;;16.10;65.70;;;;;;5066481;28;43872;-70
2022/01/09 10:17:41;;;;;;;2.33;2.23;;;16.10;65.70;;;;;;5064836;28;46121;-70
2022/01/09 10:20:11;;;;;;;3.67;2.60;;;16.20;65.60;;;;;;5066301;28;43762;-69
2022/01/09 10:22:40;;;;;;;2.87;2.67;;;16.30;65.20;;;;;;5065997;28;43424;-71
2022/01/09 10:25:23;;;;;;;2.50;2.30;;;16.40;64.70;;;;;;5066379;28;43945;-70
2022/01/09 10:27:52;;;;;;;2.57;2.37;;;16.40;64.40;;;;;;5065844;28;44032;-70
2022/01/09 10:30:27;;;;;;;2.50;2.37;;;16.40;64.60;;;;;;5064378;28;46080;-70
2022/01/09 10:32:56;;;;;;;2.43;2.33;;;16.40;64.80;;;;;;5065790;28;44071;-70
2022/01/09 10:35:25;;;;;;;2.43;2.33;;;16.30;65.00;;;;;;5066766;28;43790;-69
2022/01/09 10:38:13;;;;;;;2.60;2.50;;;16.30;65.10;;;;;;5069220;28;43759;-69
2022/01/09 10:40:43;;;;;;;2.73;2.53;;;16.20;65.30;;;;;;5069277;28;43986;-69
2022/01/09 10:43:12;;;;;;;2.03;1.93;;;16.20;65.40;;;;;;5067800;28;43940;-70
2022/01/09 10:45:43;;;;;;;2.30;2.20;;;16.10;65.40;;;;;;5069116;28;43972;-71
2022/01/09 10:48:12;;;;;;;2.53;2.33;;;16.10;65.50;;;;;;5067600;28;45445;-70
2022/01/09 10:50:42;;;;;;;2.80;2.60;;;16.10;65.70;;;;;;5067498;28;46075;-70
2022/01/09 10:53:27;;;;;;;2.30;2.10;;;16.10;65.80;;;;;;5067884;28;44104;-70
2022/01/09 10:56:09;;;;;;;2.40;2.20;;;16.10;65.80;;;;;;5069606;28;44079;-70
2022/01/09 10:58:39;;;;;;;2.50;2.33;;;16.10;65.60;;;;;;5069431;28;43961;-70
2022/01/09 11:01:21;;;;;;;2.30;2.20;;;16.20;65.50;;;;;;5069005;28;43932;-70
2022/01/09 11:03:50;;;;;;;2.13;2.00;;;16.30;65.10;;;;;;5067564;28;43623;-69
2022/01/09 11:06:19;;;;;;;2.40;2.30;;;16.40;64.70;;;;;;5069366;28;43486;-70
2022/01/09 11:08:49;;;;;;;3.63;2.10;;;16.50;64.30;;;;;;5068675;28;43906;-70
2022/01/09 11:11:24;;;;;;;2.10;2.00;;;16.50;64.60;;;;;;5068659;28;43987;-70
2022/01/09 11:13:54;;;;;;;2.47;2.37;;;16.40;64.60;;;;;;5068661;28;43939;-71
2022/01/09 11:16:42;;;;;;;2.23;2.13;;;16.30;64.80;;;;;;5067714;28;43407;-70
2022/01/09 11:19:11;;;;;;;1.93;1.87;;;16.30;65.10;;;;;;5068707;28;44014;-70
2022/01/09 11:21:40;;;;;;;1.90;1.80;;;16.20;65.30;;;;;;5068805;28;44042;-70
2022/01/09 11:24:29;;;;;;;2.23;2.13;;;16.20;65.50;;;;;;5068480;28;44059;-70
2022/01/09 11:27:01;;;;;;;1.97;1.87;;;16.10;65.40;;;;;;5068927;28;43554;-70
2022/01/09 11:29:32;;;;;;;2.20;2.10;;;16.10;66.00;;;;;;5068286;28;44023;-69
2022/01/09 11:32:08;;;;;;;2.10;1.90;;;16.10;65.80;;;;;;5067147;28;44436;-70
2022/01/09 11:34:41;;;;;;;1.90;1.80;;;16.10;65.80;;;;;;5067424;28;43932;-69
2022/01/09 11:37:14;;;;;;;2.13;2.03;;;16.10;65.80;;;;;;5069592;28;44451;-70
2022/01/09 11:39:43;;;;;;;2.03;1.93;;;16.10;65.70;;;;;;5061240;28;45783;-70
2022/01/09 11:42:13;;;;;;;2.03;1.93;;;16.20;65.50;;;;;;5068233;28;44036;-70
2022/01/09 11:44:47;;;;;;;1.90;1.80;;;16.20;64.90;;;;;;5068163;28;43951;-70
2022/01/09 11:47:17;;;;;;;1.90;1.80;;;16.30;65.10;;;;;;5068545;28;43881;-69
2022/01/09 11:50:07;;;;;;;2.77;1.70;;;16.30;65.20;;;;;;5066769;28;47064;-70
2022/01/09 11:52:35;;;;;;;2.07;1.97;;;16.20;65.30;;;;;;5068549;28;43358;-70
2022/01/09 11:55:05;;;;;;;1.80;1.70;;;16.20;65.40;;;;;;5066588;28;44026;-70
2022/01/09 11:57:37;;;;;;;1.73;1.70;;;16.10;65.50;;;;;;5068540;28;43379;-70
2022/01/09 12:00:07;;;;;;;2.00;1.90;;;16.10;65.60;;;;;;5068018;28;45296;-71
2022/01/09 12:02:38;;;;;;;2.00;1.90;;;16.10;65.80;;;;;;5068052;28;43844;-69
2022/01/09 12:05:08;;;;;;;1.90;1.80;;;16.10;65.90;;;;;;5061540;28;44068;-70
2022/01/09 12:08:09;;;;;;;1.57;1.57;;;16.00;65.90;;;;;;5062521;28;43993;-70
2022/01/09 12:10:41;;;;;;;1.60;1.60;;;16.00;65.90;;;;;;5066617;28;44957;-70
2022/01/09 12:13:37;;;;;;;1.90;1.80;;;16.00;65.90;;;;;;5068138;28;43968;-70
2022/01/09 12:16:06;;;;;;;2.20;2.10;;;16.00;66.10;;;;;;5068307;28;43926;-70
2022/01/09 12:18:43;;;;;;;1.87;1.70;;;16.00;65.90;;;;;;5068363;28;43953;-70
2022/01/09 12:21:27;;;;;;;1.93;1.83;;;16.00;65.80;;;;;;5066334;28;46041;-70
2022/01/09 12:23:56;;;;;;;1.90;1.70;;;16.10;65.50;;;;;;5066142;28;44967;-70
2022/01/09 12:26:28;;;;;;;2.10;2.00;;;16.30;65.20;;;;;;5067425;28;44015;-70
2022/01/09 12:29:05;;;;;;;1.73;1.73;;;16.40;64.60;;;;;;5061509;28;43499;-70
2022/01/09 12:31:33;;;;;;;1.60;1.60;;;16.60;64.30;;;;;;5062504;28;44066;-70
2022/01/09 12:34:05;;;;;;;1.60;1.60;;;16.60;64.10;;;;;;5067407;28;44050;-70
2022/01/09 12:36:33;;;;;;;1.77;1.67;;;16.50;64.30;;;;;;5067451;28;43991;-70
2022/01/09 12:39:05;;;;;;;1.50;1.50;;;16.50;64.70;;;;;;5068004;28;43420;-70
2022/01/09 12:41:36;;;;;;;1.77;1.67;;;16.40;64.80;;;;;;5067463;28;44012;-70
2022/01/09 12:44:08;;;;;;;1.37;1.37;;;16.30;65.10;;;;;;5065677;28;45025;-70
2022/01/09 12:46:41;;;;;;;1.40;1.40;;;16.30;66.00;;;;;;5067770;28;44022;-69
2022/01/09 12:49:15;;;;;;;1.63;1.53;;;16.20;65.30;;;;;;5068006;28;43920;-69
2022/01/09 12:51:48;;;;;;;1.93;1.83;;;16.20;65.40;;;;;;5067366;28;44002;-70
2022/01/09 12:54:19;;;;;;;1.53;1.53;;;16.10;65.40;;;;;;5067440;28;43352;-70
2022/01/09 12:56:48;;;;;;;1.57;1.57;;;16.10;65.50;;;;;;5065825;28;43959;-70
2022/01/09 12:59:16;;;;;;;1.90;1.80;;;16.10;65.60;;;;;;5066403;28;43999;-70